Time;durP1;ratioP1;P1;durP2;ratioP2;P2;SDS_P1;SDS_P2;PMS_P1;PMS_P2;Temp;Humidity;BMP_temperature;BMP_pressure;BME280_temperature;BME280_humidity;BME280_pressure;Samples;Min_cycle;Max_cycle;Signal;HPM_P1;HPM_P2
2023/06/01 00:01:14;;;;;;;5.60;2.40;;;;;;;;;;6246880;28;20418;-78
2023/06/01 00:04:16;;;;;;;7.73;2.53;;;;;;;;;;6254309;28;20056;-78
2023/06/01 00:07:18;;;;;;;4.10;2.53;;;;;;;;;;6252779;28;20105;-77
2023/06/01 00:10:20;;;;;;;4.20;2.40;;;;;;;;;;6257669;28;20064;-78
2023/06/01 00:13:22;;;;;;;4.78;2.53;;;;;;;;;;6252852;28;20052;-77
2023/06/01 00:16:24;;;;;;;4.75;2.50;;;;;;;;;;6268822;28;20041;-77
2023/06/01 00:19:26;;;;;;;4.18;2.47;;;;;;;;;;6252930;28;20045;-78
2023/06/01 00:22:28;;;;;;;4.88;2.05;;;;;;;;;;6248280;28;20083;-78
2023/06/01 00:25:30;;;;;;;4.88;2.45;;;;;;;;;;6255105;28;20049;-78
2023/06/01 00:28:32;;;;;;;5.28;2.47;;;;;;;;;;6252427;28;20514;-78
2023/06/01 00:31:33;;;;;;;3.50;2.20;;;;;;;;;;6249476;28;20044;-77
2023/06/01 00:34:35;;;;;;;4.75;2.08;;;;;;;;;;6254538;28;20542;-78
2023/06/01 00:37:37;;;;;;;4.38;2.13;;;;;;;;;;6250299;28;20403;-78
2023/06/01 00:40:38;;;;;;;3.75;2.20;;;;;;;;;;6250479;28;20526;-78
2023/06/01 00:43:40;;;;;;;4.20;2.42;;;;;;;;;;6265627;28;20506;-78
2023/06/01 00:46:42;;;;;;;4.68;2.25;;;;;;;;;;6255422;28;20041;-78
2023/06/01 00:49:44;;;;;;;4.28;2.50;;;;;;;;;;6249855;28;20114;-78
2023/06/01 00:52:49;;;;;;;6.15;2.50;;;;;;;;;;6250338;28;20041;-79
2023/06/01 00:55:51;;;;;;;4.35;1.98;;;;;;;;;;6252277;28;20052;-78
2023/06/01 00:58:53;;;;;;;4.20;2.50;;;;;;;;;;6251739;28;20053;-78
2023/06/01 01:01:54;;;;;;;4.35;2.40;;;;;;;;;;6251579;28;20045;-79
2023/06/01 01:04:59;;;;;;;5.82;2.35;;;;;;;;;;6260030;28;20045;-78
2023/06/01 01:08:18;;;;;;;5.03;2.40;;;;;;;;;;6253312;28;20053;-78
2023/06/01 01:11:23;;;;;;;3.45;2.10;;;;;;;;;;6250410;28;20052;-77
2023/06/01 01:14:35;;;;;;;4.60;2.58;;;;;;;;;;6249506;28;20187;-77
2023/06/01 01:17:42;;;;;;;4.50;2.67;;;;;;;;;;6257325;28;20053;-78
2023/06/01 01:20:52;;;;;;;4.50;2.60;;;;;;;;;;6257746;28;20041;-79
2023/06/01 01:24:23;;;;;;;7.20;2.50;;;;;;;;;;6254345;28;20060;-77
2023/06/01 01:27:44;;;;;;;4.05;2.35;;;;;;;;;;6268605;28;20041;-78
2023/06/01 01:30:46;;;;;;;4.72;2.63;;;;;;;;;;6245294;28;20076;-78
2023/06/01 01:33:51;;;;;;;5.13;2.37;;;;;;;;;;6253351;28;20052;-78
2023/06/01 01:36:54;;;;;;;5.35;2.40;;;;;;;;;;6249558;28;20037;-78
2023/06/01 01:39:56;;;;;;;4.10;2.50;;;;;;;;;;6266815;28;20049;-78
2023/06/01 01:42:58;;;;;;;4.03;2.35;;;;;;;;;;6251333;28;20059;-78
2023/06/01 01:46:07;;;;;;;3.80;2.70;;;;;;;;;;6252724;28;20056;-79
2023/06/01 01:49:17;;;;;;;3.55;2.33;;;;;;;;;;6266876;28;20053;-79
2023/06/01 01:52:23;;;;;;;5.28;2.58;;;;;;;;;;6255461;28;20051;-78
2023/06/01 01:55:26;;;;;;;4.32;2.55;;;;;;;;;;6250758;28;20044;-78
2023/06/01 01:58:28;;;;;;;4.25;2.50;;;;;;;;;;6256741;28;20049;-78
2023/06/01 02:01:31;;;;;;;6.10;2.65;;;;;;;;;;6270571;28;20049;-79
2023/06/01 02:04:41;;;;;;;5.60;2.92;;;;;;;;;;6274702;28;20080;-77
2023/06/01 02:07:45;;;;;;;6.00;3.00;;;;;;;;;;6270509;28;20076;-79
2023/06/01 02:10:47;;;;;;;4.50;2.97;;;;;;;;;;6255857;28;20045;-79
2023/06/01 02:13:48;;;;;;;3.00;2.30;;;;;;;;;;6259850;28;20061;-78
2023/06/01 02:16:50;;;;;;;5.55;2.67;;;;;;;;;;6259446;28;20660;-80
2023/06/01 02:19:52;;;;;;;7.10;2.95;;;;;;;;;;6259387;28;20071;-79
2023/06/01 02:22:53;;;;;;;7.32;3.00;;;;;;;;;;6265407;28;20041;-78
2023/06/01 02:25:56;;;;;;;6.80;3.03;;;;;;;;;;6282040;28;20047;-78
2023/06/01 02:28:58;;;;;;;4.53;2.50;;;;;;;;;;6279841;28;20053;-78
2023/06/01 02:31:59;;;;;;;6.80;3.10;;;;;;;;;;6270142;28;20060;-79
2023/06/01 02:35:02;;;;;;;6.55;2.80;;;;;;;;;;6262017;28;20049;-78
2023/06/01 02:38:04;;;;;;;4.25;2.88;;;;;;;;;;6256794;28;20053;-79
2023/06/01 02:41:06;;;;;;;6.00;2.60;;;;;;;;;;6259520;28;20068;-79
2023/06/01 02:44:08;;;;;;;3.25;2.47;;;;;;;;;;6260357;28;20415;-78
2023/06/01 02:47:10;;;;;;;5.68;2.90;;;;;;;;;;6258192;28;20045;-79
2023/06/01 02:50:12;;;;;;;4.63;2.40;;;;;;;;;;6244008;28;20427;-78
2023/06/01 02:53:17;;;;;;;4.20;2.47;;;;;;;;;;6264535;28;20465;-79
2023/06/01 02:56:21;;;;;;;4.80;2.70;;;;;;;;;;6266149;28;20131;-79
2023/06/01 02:59:48;;;;;;;4.38;2.80;;;;;;;;;;6275686;28;20055;-78
2023/06/01 03:02:50;;;;;;;4.00;2.60;;;;;;;;;;6254685;28;20044;-79
2023/06/01 03:05:52;;;;;;;5.13;2.80;;;;;;;;;;6258896;28;20090;-79
2023/06/01 03:09:12;;;;;;;4.80;2.70;;;;;;;;;;6258184;28;20041;-78
2023/06/01 03:12:27;;;;;;;4.88;2.42;;;;;;;;;;6261833;28;20056;-79
2023/06/01 03:15:29;;;;;;;5.90;2.42;;;;;;;;;;6259545;28;20041;-78
2023/06/01 03:18:31;;;;;;;3.63;2.47;;;;;;;;;;6251280;28;20041;-80
2023/06/01 03:21:33;;;;;;;7.00;3.00;;;;;;;;;;6262879;28;20041;-79
2023/06/01 03:24:36;;;;;;;4.80;2.60;;;;;;;;;;6256571;28;20071;-80
2023/06/01 03:27:39;;;;;;;3.53;2.17;;;;;;;;;;6265457;28;20498;-79
2023/06/01 03:30:42;;;;;;;6.63;3.10;;;;;;;;;;6270098;28;20037;-79
2023/06/01 03:33:44;;;;;;;4.15;2.55;;;;;;;;;;6256800;28;20049;-80
2023/06/01 03:36:47;;;;;;;3.80;2.67;;;;;;;;;;6251546;28;20124;-80
2023/06/01 03:39:49;;;;;;;4.05;2.38;;;;;;;;;;6256470;28;20048;-80
2023/06/01 03:42:53;;;;;;;5.65;2.42;;;;;;;;;;6251391;28;20049;-78
2023/06/01 03:45:56;;;;;;;5.88;2.88;;;;;;;;;;6273472;28;20478;-80
2023/06/01 03:48:57;;;;;;;5.07;2.78;;;;;;;;;;6275873;28;20045;-78
2023/06/01 03:52:00;;;;;;;4.68;2.60;;;;;;;;;;6275014;28;20044;-77
2023/06/01 03:55:07;;;;;;;4.28;2.55;;;;;;;;;;6284507;28;20051;-77
2023/06/01 03:58:28;;;;;;;3.85;2.50;;;;;;;;;;6287401;28;20033;-80
2023/06/01 04:01:30;;;;;;;4.10;2.78;;;;;;;;;;6284493;28;20055;-78
2023/06/01 04:04:32;;;;;;;4.65;2.50;;;;;;;;;;6278156;28;20053;-78
2023/06/01 04:07:34;;;;;;;6.43;2.60;;;;;;;;;;6286940;28;20118;-78
2023/06/01 04:10:36;;;;;;;5.20;2.75;;;;;;;;;;6280792;28;20052;-78
2023/06/01 04:13:38;;;;;;;6.00;3.13;;;;;;;;;;6292947;28;20056;-79
2023/06/01 04:16:40;;;;;;;4.03;2.70;;;;;;;;;;6265289;28;20056;-79
2023/06/01 04:19:46;;;;;;;4.30;2.70;;;;;;;;;;6258521;28;20302;-80
2023/06/01 04:22:48;;;;;;;4.30;2.65;;;;;;;;;;6271866;28;20048;-78
2023/06/01 04:25:53;;;;;;;4.55;2.45;;;;;;;;;;6268296;28;20044;-80
2023/06/01 04:28:56;;;;;;;6.60;2.85;;;;;;;;;;6240608;28;20118;-79
2023/06/01 04:31:59;;;;;;;8.05;3.13;;;;;;;;;;6257151;28;20051;-79
2023/06/01 04:35:04;;;;;;;6.25;3.25;;;;;;;;;;6260123;28;20634;-80
2023/06/01 04:38:08;;;;;;;4.95;2.92;;;;;;;;;;6255365;28;20211;-78
2023/06/01 04:41:10;;;;;;;3.25;2.65;;;;;;;;;;6256162;28;20036;-78
2023/06/01 04:44:13;;;;;;;4.78;3.17;;;;;;;;;;6242472;28;20045;-79
2023/06/01 04:47:16;;;;;;;4.63;3.30;;;;;;;;;;6260491;28;20040;-78
2023/06/01 04:50:22;;;;;;;6.88;3.60;;;;;;;;;;6252121;28;20418;-79
2023/06/01 04:53:23;;;;;;;5.85;3.50;;;;;;;;;;6252277;28;20040;-79
2023/06/01 04:56:28;;;;;;;7.75;4.03;;;;;;;;;;6251626;28;20048;-79
2023/06/01 04:59:30;;;;;;;8.60;4.43;;;;;;;;;;6255736;28;20159;-79
2023/06/01 05:02:32;;;;;;;7.85;3.55;;;;;;;;;;6268284;28;20483;-79
2023/06/01 05:05:34;;;;;;;8.65;3.88;;;;;;;;;;6251546;28;20044;-78
2023/06/01 05:08:40;;;;;;;10.55;3.60;;;;;;;;;;6233623;28;20044;-81
2023/06/01 05:11:42;;;;;;;10.32;3.90;;;;;;;;;;6253754;28;20044;-79
2023/06/01 05:14:43;;;;;;;10.98;4.35;;;;;;;;;;6254306;28;20057;-80
2023/06/01 05:17:47;;;;;;;12.32;4.05;;;;;;;;;;6252216;28;20144;-79
2023/06/01 05:20:53;;;;;;;10.85;4.18;;;;;;;;;;6253337;28;20118;-79
2023/06/01 05:23:55;;;;;;;10.25;4.07;;;;;;;;;;6254964;28;20037;-79
2023/06/01 05:26:57;;;;;;;17.50;4.35;;;;;;;;;;6251417;28;20049;-79
2023/06/01 05:29:59;;;;;;;10.82;4.60;;;;;;;;;;6255541;28;20052;-79
2023/06/01 05:33:01;;;;;;;16.02;3.85;;;;;;;;;;6265965;28;20045;-79
2023/06/01 05:36:03;;;;;;;12.50;4.20;;;;;;;;;;6247779;28;20068;-79
2023/06/01 05:39:05;;;;;;;13.43;4.07;;;;;;;;;;6251656;28;20546;-79
2023/06/01 05:42:08;;;;;;;16.70;4.43;;;;;;;;;;6262183;28;20043;-79
2023/06/01 05:45:12;;;;;;;22.45;4.65;;;;;;;;;;6260628;28;20045;-77
2023/06/01 05:48:15;;;;;;;;;;;;;;;;;;6246409;28;20098;-80
2023/06/01 05:51:22;;;;;;;15.23;3.80;;;;;;;;;;6260554;28;20051;-79
2023/06/01 05:54:24;;;;;;;19.45;4.72;;;;;;;;;;6259775;28;20067;-80
2023/06/01 05:57:26;;;;;;;12.85;3.65;;;;;;;;;;6258795;28;20048;-80
2023/06/01 06:00:28;;;;;;;15.23;4.28;;;;;;;;;;6250113;28;20062;-80
2023/06/01 06:03:29;;;;;;;12.90;3.70;;;;;;;;;;6256696;28;20052;-79
2023/06/01 06:06:31;;;;;;;12.65;4.32;;;;;;;;;;6255197;28;20045;-79
2023/06/01 06:09:33;;;;;;;12.85;3.55;;;;;;;;;;6253782;28;20060;-79
2023/06/01 06:12:35;;;;;;;13.45;3.97;;;;;;;;;;6259821;28;20052;-80
2023/06/01 06:15:36;;;;;;;9.13;3.20;;;;;;;;;;6255470;28;20064;-80
2023/06/01 06:18:38;;;;;;;8.23;3.65;;;;;;;;;;6263619;28;20070;-79
2023/06/01 06:21:40;;;;;;;15.25;4.00;;;;;;;;;;6252426;28;20048;-79
2023/06/01 06:24:42;;;;;;;20.48;3.97;;;;;;;;;;6261813;28;20117;-79
2023/06/01 06:27:45;;;;;;;16.73;3.60;;;;;;;;;;6257890;28;20048;-79
2023/06/01 06:30:46;;;;;;;12.00;3.63;;;;;;;;;;6250385;28;20506;-80
2023/06/01 06:33:48;;;;;;;18.02;3.20;;;;;;;;;;6253521;28;20049;-80
2023/06/01 06:36:52;;;;;;;15.82;3.58;;;;;;;;;;6258882;28;20507;-80
2023/06/01 06:39:54;;;;;;;21.02;3.50;;;;;;;;;;6267241;28;20070;-79
2023/06/01 06:42:55;;;;;;;13.63;3.33;;;;;;;;;;6262188;28;20065;-80
2023/06/01 06:45:57;;;;;;;9.68;3.22;;;;;;;;;;6256834;28;20052;-82
2023/06/01 06:48:59;;;;;;;7.88;3.10;;;;;;;;;;6260238;28;20064;-79
2023/06/01 06:52:00;;;;;;;12.13;2.97;;;;;;;;;;6265180;28;20051;-78
2023/06/01 06:55:02;;;;;;;8.43;3.13;;;;;;;;;;6251306;28;20071;-77
2023/06/01 06:58:04;;;;;;;8.32;3.05;;;;;;;;;;6252310;28;20053;-78
2023/06/01 07:01:06;;;;;;;11.43;3.38;;;;;;;;;;6255723;28;20045;-78
2023/06/01 07:04:08;;;;;;;20.15;3.78;;;;;;;;;;6258775;28;20392;-78
2023/06/01 07:07:10;;;;;;;15.32;3.58;;;;;;;;;;6256636;28;20095;-78
2023/06/01 07:10:12;;;;;;;13.95;3.45;;;;;;;;;;6268352;28;20045;-79
2023/06/01 07:13:14;;;;;;;17.13;2.80;;;;;;;;;;6256505;28;20049;-79
2023/06/01 07:16:16;;;;;;;9.77;3.27;;;;;;;;;;6252495;28;20070;-80
2023/06/01 07:19:17;;;;;;;12.77;2.83;;;;;;;;;;6252232;28;20045;-78
2023/06/01 07:22:21;;;;;;;7.47;2.70;;;;;;;;;;6251988;28;20041;-79
2023/06/01 07:25:23;;;;;;;7.78;2.40;;;;;;;;;;6259823;28;20048;-81
2023/06/01 07:28:26;;;;;;;8.57;2.50;;;;;;;;;;6237455;28;20055;-79
2023/06/01 07:31:28;;;;;;;7.90;2.90;;;;;;;;;;6263257;28;20075;-79
2023/06/01 07:34:30;;;;;;;4.43;2.60;;;;;;;;;;6250000;28;20187;-80
2023/06/01 07:37:32;;;;;;;4.68;2.45;;;;;;;;;;6261753;28;20068;-80
2023/06/01 07:40:34;;;;;;;7.07;2.20;;;;;;;;;;6257668;28;20090;-79
2023/06/01 07:43:37;;;;;;;9.70;2.47;;;;;;;;;;6243113;28;20680;-79
2023/06/01 07:46:39;;;;;;;6.03;2.40;;;;;;;;;;6255180;28;20045;-80
2023/06/01 07:49:40;;;;;;;6.88;2.70;;;;;;;;;;6268639;28;20267;-81
2023/06/01 07:52:42;;;;;;;8.48;2.75;;;;;;;;;;6269873;28;20449;-81
2023/06/01 07:55:44;;;;;;;5.57;2.58;;;;;;;;;;6282678;28;20142;-80
2023/06/01 07:58:46;;;;;;;5.65;2.50;;;;;;;;;;6277704;28;20056;-78
2023/06/01 08:01:50;;;;;;;8.02;2.42;;;;;;;;;;6270748;28;20057;-80
2023/06/01 08:04:52;;;;;;;5.28;2.58;;;;;;;;;;6263096;28;20056;-79
2023/06/01 08:07:56;;;;;;;4.35;2.58;;;;;;;;;;6266988;28;20040;-80
2023/06/01 08:10:58;;;;;;;8.82;2.70;;;;;;;;;;6258350;28;20684;-79
2023/06/01 08:14:01;;;;;;;6.70;2.30;;;;;;;;;;6257991;28;20127;-81
2023/06/01 08:17:06;;;;;;;6.80;2.30;;;;;;;;;;6264229;28;20068;-81
2023/06/01 08:20:12;;;;;;;8.30;2.42;;;;;;;;;;6260910;28;20043;-80
2023/06/01 08:23:16;;;;;;;6.97;2.35;;;;;;;;;;6255522;28;20048;-79
2023/06/01 08:26:19;;;;;;;4.68;2.38;;;;;;;;;;6257457;28;20538;-78
2023/06/01 08:29:21;;;;;;;6.65;2.35;;;;;;;;;;6255876;28;20044;-79
2023/06/01 08:32:41;;;;;;;6.20;2.30;;;;;;;;;;6255731;28;20049;-79
2023/06/01 08:35:43;;;;;;;6.13;2.22;;;;;;;;;;6253230;28;20042;-80
2023/06/01 08:38:46;;;;;;;5.10;2.70;;;;;;;;;;6254514;28;20045;-78
2023/06/01 08:41:56;;;;;;;5.32;2.28;;;;;;;;;;6269025;28;20056;-80
2023/06/01 08:44:58;;;;;;;5.97;2.50;;;;;;;;;;6250288;28;20402;-80
2023/06/01 08:48:02;;;;;;;3.22;2.05;;;;;;;;;;6258618;28;20053;-78
2023/06/01 08:51:04;;;;;;;4.32;2.05;;;;;;;;;;6262540;28;20060;-79
2023/06/01 08:54:09;;;;;;;5.97;2.25;;;;;;;;;;6261013;28;20095;-79
2023/06/01 08:57:11;;;;;;;4.65;2.33;;;;;;;;;;6263466;28;20045;-79
2023/06/01 09:00:14;;;;;;;4.78;2.10;;;;;;;;;;6251660;28;20491;-77
2023/06/01 09:03:17;;;;;;;5.50;2.40;;;;;;;;;;6256512;28;20045;-78
2023/06/01 09:06:19;;;;;;;5.03;2.20;;;;;;;;;;6254427;28;20040;-77
2023/06/01 09:09:21;;;;;;;4.95;2.28;;;;;;;;;;6258370;28;20041;-79
2023/06/01 09:12:32;;;;;;;4.72;2.55;;;;;;;;;;6276506;28;20483;-79
2023/06/01 09:15:34;;;;;;;4.30;2.15;;;;;;;;;;6261447;28;20049;-78
2023/06/01 09:18:36;;;;;;;4.33;1.90;;;;;;;;;;6257258;28;20056;-79
2023/06/01 09:21:38;;;;;;;4.95;2.40;;;;;;;;;;6248609;28;20046;-78
2023/06/01 09:24:43;;;;;;;4.22;2.38;;;;;;;;;;6269524;28;20048;-78
2023/06/01 09:27:51;;;;;;;3.55;2.10;;;;;;;;;;6253422;28;20049;-79
2023/06/01 09:30:53;;;;;;;5.22;1.83;;;;;;;;;;6262680;28;20045;-79
2023/06/01 09:34:01;;;;;;;3.87;1.87;;;;;;;;;;6262339;28;20041;-79
2023/06/01 09:37:06;;;;;;;4.97;2.33;;;;;;;;;;6259171;28;20500;-80
2023/06/01 09:40:18;;;;;;;4.72;2.20;;;;;;;;;;6256355;28;20049;-79
2023/06/01 09:43:22;;;;;;;4.47;2.13;;;;;;;;;;6260422;28;20048;-79
2023/06/01 09:46:23;;;;;;;3.22;2.00;;;;;;;;;;6256002;28;20055;-79
2023/06/01 09:49:28;;;;;;;3.15;2.05;;;;;;;;;;6258144;28;20048;-78
2023/06/01 09:52:30;;;;;;;3.95;1.90;;;;;;;;;;6249405;28;20049;-79
2023/06/01 09:55:31;;;;;;;9.10;2.13;;;;;;;;;;6252723;28;20041;-78
2023/06/01 09:58:39;;;;;;;3.40;2.00;;;;;;;;;;6252560;28;20042;-78
2023/06/01 10:01:43;;;;;;;3.97;1.95;;;;;;;;;;6248966;28;20448;-78
2023/06/01 10:04:49;;;;;;;4.97;1.95;;;;;;;;;;6255507;28;20120;-80
2023/06/01 10:07:51;;;;;;;5.68;2.47;;;;;;;;;;6252477;28;20048;-78
2023/06/01 10:10:53;;;;;;;4.35;1.98;;;;;;;;;;6267111;28;20045;-78
2023/06/01 10:13:56;;;;;;;6.78;2.17;;;;;;;;;;6251843;28;20045;-78
2023/06/01 10:16:58;;;;;;;2.60;2.00;;;;;;;;;;6246900;28;20076;-78
2023/06/01 10:20:01;;;;;;;3.75;2.35;;;;;;;;;;6250166;28;20052;-78
2023/06/01 10:23:04;;;;;;;3.53;2.10;;;;;;;;;;6255807;28;20048;-79
2023/06/01 10:26:15;;;;;;;2.15;1.83;;;;;;;;;;6271317;28;20049;-78
2023/06/01 10:29:18;;;;;;;4.20;2.20;;;;;;;;;;6256905;28;20117;-78
2023/06/01 10:32:46;;;;;;;4.20;2.30;;;;;;;;;;6256644;28;20059;-79
2023/06/01 10:35:47;;;;;;;3.42;2.03;;;;;;;;;;6258489;28;20129;-79
2023/06/01 10:38:49;;;;;;;2.93;2.00;;;;;;;;;;6254962;28;20155;-79
2023/06/01 10:41:51;;;;;;;4.50;2.25;;;;;;;;;;6249579;28;20436;-79
2023/06/01 10:44:53;;;;;;;4.55;2.15;;;;;;;;;;6253307;28;20056;-79
2023/06/01 10:47:54;;;;;;;3.70;2.17;;;;;;;;;;6259727;28;20069;-79
2023/06/01 10:51:19;;;;;;;3.83;2.10;;;;;;;;;;6256550;28;20052;-79
2023/06/01 10:54:27;;;;;;;4.28;2.10;;;;;;;;;;6251121;28;20448;-79
2023/06/01 10:57:29;;;;;;;2.95;2.10;;;;;;;;;;6249965;28;20183;-79
2023/06/01 11:00:39;;;;;;;3.08;2.20;;;;;;;;;;6272750;28;20457;-80
2023/06/01 11:03:45;;;;;;;3.10;2.00;;;;;;;;;;6259979;28;20048;-80
2023/06/01 11:06:48;;;;;;;3.83;2.03;;;;;;;;;;6259220;28;20039;-79
2023/06/01 11:09:49;;;;;;;4.60;2.08;;;;;;;;;;6257039;28;20048;-79
2023/06/01 11:13:10;;;;;;;4.40;1.98;;;;;;;;;;6258129;28;20049;-78
2023/06/01 11:16:14;;;;;;;3.50;2.00;;;;;;;;;;6264008;28;20060;-78
2023/06/01 11:19:24;;;;;;;3.33;1.70;;;;;;;;;;6253259;28;20048;-79
2023/06/01 11:22:33;;;;;;;3.13;1.90;;;;;;;;;;6267618;28;20044;-79
2023/06/01 11:25:35;;;;;;;2.88;1.75;;;;;;;;;;6257016;28;20041;-80
2023/06/01 11:28:37;;;;;;;3.70;1.90;;;;;;;;;;6252740;28;20045;-80
2023/06/01 11:31:45;;;;;;;2.95;1.80;;;;;;;;;;6258482;28;20049;-79
2023/06/01 11:34:48;;;;;;;2.50;1.70;;;;;;;;;;6248272;28;20085;-79
2023/06/01 11:37:54;;;;;;;3.00;1.80;;;;;;;;;;6253234;28;20145;-79
2023/06/01 11:41:00;;;;;;;2.60;1.63;;;;;;;;;;6244576;28;20036;-78
2023/06/01 11:44:03;;;;;;;3.20;1.80;;;;;;;;;;6246231;28;20102;-79
2023/06/01 11:47:06;;;;;;;;;;;;;;;;;;6250482;28;20119;-80
2023/06/01 11:50:21;;;;;;;3.90;1.98;;;;;;;;;;6253423;28;19928;-81
2023/06/01 11:53:24;;;;;;;2.10;1.85;;;;;;;;;;6234171;28;20060;-81
2023/06/01 11:56:35;;;;;;;3.00;1.90;;;;;;;;;;6256538;28;20519;-80
2023/06/01 11:59:44;;;;;;;2.00;1.73;;;;;;;;;;6249470;28;20044;-80
2023/06/01 12:02:46;;;;;;;7.85;2.53;;;;;;;;;;6269362;28;20044;-80
2023/06/01 12:05:52;;;;;;;7.35;2.50;;;;;;;;;;6253615;28;20427;-79
2023/06/01 12:08:55;;;;;;;3.53;2.72;;;;;;;;;;6249204;28;20036;-79
2023/06/01 12:11:58;;;;;;;4.88;3.00;;;;;;;;;;6259046;28;20084;-80
2023/06/01 12:14:59;;;;;;;4.60;3.40;;;;;;;;;;6256058;28;21281;-79
2023/06/01 12:18:02;;;;;;;;;;;;;;;;;;6242637;28;20055;-81
2023/06/01 12:21:11;;;;;;;4.28;3.13;;;;;;;;;;6257031;28;20002;-80
2023/06/01 12:24:15;;;;;;;7.43;3.90;;;;;;;;;;6239342;28;20513;-80
2023/06/01 12:27:21;;;;;;;5.15;4.13;;;;;;;;;;6262652;28;20523;-79
2023/06/01 12:30:22;;;;;;;8.00;5.05;;;;;;;;;;6272211;28;20044;-80
2023/06/01 12:33:35;;;;;;;7.70;4.40;;;;;;;;;;6256021;28;20048;-80
2023/06/01 12:36:37;;;;;;;8.68;4.88;;;;;;;;;;6255938;28;20423;-79
2023/06/01 12:39:40;;;;;;;5.88;4.75;;;;;;;;;;6257806;28;20033;-79
2023/06/01 12:42:42;;;;;;;6.03;4.90;;;;;;;;;;6255636;28;20063;-79
2023/06/01 12:45:44;;;;;;;6.90;4.63;;;;;;;;;;6255396;28;20045;-79
2023/06/01 12:48:47;;;;;;;7.72;4.80;;;;;;;;;;6250524;28;20170;-78
2023/06/01 12:51:49;;;;;;;6.55;4.72;;;;;;;;;;6251462;28;20049;-80
2023/06/01 12:54:51;;;;;;;6.93;4.50;;;;;;;;;;6250889;28;20055;-80
2023/06/01 12:57:54;;;;;;;6.70;4.78;;;;;;;;;;6256446;28;20121;-79
2023/06/01 13:00:56;;;;;;;6.63;4.80;;;;;;;;;;6251192;28;20049;-78
2023/06/01 13:04:00;;;;;;;7.53;4.75;;;;;;;;;;6256882;28;20049;-79
2023/06/01 13:07:02;;;;;;;6.03;4.70;;;;;;;;;;6259200;28;20040;-78
2023/06/01 13:10:04;;;;;;;5.88;4.40;;;;;;;;;;6254478;28;20053;-79
2023/06/01 13:13:07;;;;;;;;;;;;;;;;;;6257826;28;20049;-78
2023/06/01 13:16:08;;;;;;;6.72;4.85;;;;;;;;;;6257421;28;19929;-79
2023/06/01 13:19:10;;;;;;;7.13;5.10;;;;;;;;;;6253910;28;20056;-80
2023/06/01 13:22:12;;;;;;;7.88;4.95;;;;;;;;;;6253576;28;20450;-79
2023/06/01 13:25:14;;;;;;;6.40;4.88;;;;;;;;;;6250929;28;20052;-80
2023/06/01 13:28:19;;;;;;;7.72;5.05;;;;;;;;;;6252391;28;20045;-79
2023/06/01 13:31:21;;;;;;;6.15;4.65;;;;;;;;;;6251897;28;20049;-78
2023/06/01 13:34:25;;;;;;;8.10;4.95;;;;;;;;;;6258238;28;20052;-78
2023/06/01 13:37:27;;;;;;;5.60;4.68;;;;;;;;;;6261149;28;20052;-78
2023/06/01 13:40:29;;;;;;;8.30;4.93;;;;;;;;;;6272223;28;20041;-78
2023/06/01 13:43:30;;;;;;;7.28;4.65;;;;;;;;;;6271330;28;20048;-77
2023/06/01 13:46:32;;;;;;;5.53;4.75;;;;;;;;;;6260295;28;20049;-79
2023/06/01 13:49:34;;;;;;;6.22;4.72;;;;;;;;;;6251736;28;20069;-79
2023/06/01 13:52:36;;;;;;;5.93;4.82;;;;;;;;;;6252740;28;20148;-79
2023/06/01 13:55:39;;;;;;;5.72;4.57;;;;;;;;;;6253692;28;20123;-79
2023/06/01 13:58:41;;;;;;;6.45;4.30;;;;;;;;;;6249333;28;20783;-78
2023/06/01 14:01:43;;;;;;;5.60;4.45;;;;;;;;;;6258425;28;20038;-79
2023/06/01 14:04:45;;;;;;;6.20;4.40;;;;;;;;;;6261550;28;20041;-78
2023/06/01 14:08:02;;;;;;;7.35;4.40;;;;;;;;;;6262137;28;20057;-81
2023/06/01 14:11:03;;;;;;;6.00;4.43;;;;;;;;;;6261016;28;20045;-79
2023/06/01 14:14:05;;;;;;;6.43;4.60;;;;;;;;;;6256444;28;20052;-77
2023/06/01 14:17:07;;;;;;;6.20;4.25;;;;;;;;;;6257159;28;20502;-76
2023/06/01 14:20:09;;;;;;;6.78;4.68;;;;;;;;;;6256047;28;20057;-77
2023/06/01 14:23:11;;;;;;;;;;;;;;;;;;6257180;28;20045;-77
2023/06/01 14:26:13;;;;;;;6.65;4.60;;;;;;;;;;6250451;28;19928;-78
2023/06/01 14:29:15;;;;;;;6.53;5.07;;;;;;;;;;6260180;28;20045;-77
2023/06/01 14:32:16;;;;;;;6.82;5.00;;;;;;;;;;6253736;28;20056;-78
2023/06/01 14:35:18;;;;;;;5.72;4.97;;;;;;;;;;6258583;28;20095;-78
2023/06/01 14:38:20;;;;;;;6.40;5.07;;;;;;;;;;6252799;28;20414;-77
2023/06/01 14:41:22;;;;;;;7.03;5.35;;;;;;;;;;6253606;28;20045;-78
2023/06/01 14:44:23;;;;;;;7.85;5.18;;;;;;;;;;6243820;28;20083;-78
2023/06/01 14:47:25;;;;;;;6.10;5.10;;;;;;;;;;6258331;28;20530;-77
2023/06/01 14:50:27;;;;;;;8.05;5.40;;;;;;;;;;6250039;28;20060;-77
2023/06/01 14:53:29;;;;;;;7.80;5.10;;;;;;;;;;6252702;28;20044;-77
2023/06/01 14:56:31;;;;;;;6.57;5.03;;;;;;;;;;6250461;28;20517;-77
2023/06/01 14:59:36;;;;;;;7.93;5.80;;;;;;;;;;6252010;28;20526;-75
2023/06/01 15:02:40;;;;;;;7.47;5.30;;;;;;;;;;6250533;28;20075;-77
2023/06/01 15:05:42;;;;;;;6.47;4.80;;;;;;;;;;6255919;28;20393;-79
2023/06/01 15:08:43;;;;;;;7.45;5.38;;;;;;;;;;6247062;28;20117;-76
2023/06/01 15:11:45;;;;;;;7.93;5.32;;;;;;;;;;6249704;28;20138;-78
2023/06/01 15:14:48;;;;;;;6.55;5.00;;;;;;;;;;6253019;28;20041;-77
2023/06/01 15:17:50;;;;;;;6.30;5.03;;;;;;;;;;6256700;28;20047;-79
2023/06/01 15:20:51;;;;;;;5.57;4.63;;;;;;;;;;6254167;28;20045;-79
2023/06/01 15:23:54;;;;;;;5.97;4.70;;;;;;;;;;6259786;28;20056;-78
2023/06/01 15:26:56;;;;;;;9.65;5.20;;;;;;;;;;6254382;28;20243;-78
2023/06/01 15:29:58;;;;;;;7.53;4.97;;;;;;;;;;6251865;28;20056;-76
2023/06/01 15:33:02;;;;;;;7.47;5.00;;;;;;;;;;6233029;28;20047;-78
2023/06/01 15:36:10;;;;;;;5.55;4.50;;;;;;;;;;6254632;28;20095;-78
2023/06/01 15:39:15;;;;;;;6.97;4.50;;;;;;;;;;6244119;28;20049;-80
2023/06/01 15:42:19;;;;;;;5.15;4.65;;;;;;;;;;6249516;28;20084;-76
2023/06/01 15:45:22;;;;;;;5.47;4.20;;;;;;;;;;6240177;28;20132;-75
2023/06/01 15:48:23;;;;;;;5.38;4.22;;;;;;;;;;6265355;28;20051;-75
2023/06/01 15:51:25;;;;;;;6.35;4.38;;;;;;;;;;6258312;28;20048;-75
2023/06/01 15:54:27;;;;;;;4.72;4.03;;;;;;;;;;6254663;28;20033;-76
2023/06/01 15:57:29;;;;;;;6.38;3.97;;;;;;;;;;6251174;28;20048;-76
2023/06/01 16:00:33;;;;;;;5.32;3.75;;;;;;;;;;6249028;28;20749;-76
2023/06/01 16:03:34;;;;;;;5.18;3.75;;;;;;;;;;6244309;28;20076;-77
2023/06/01 16:06:36;;;;;;;6.03;3.73;;;;;;;;;;6250057;28;20044;-77
2023/06/01 16:09:38;;;;;;;4.20;3.40;;;;;;;;;;6253328;28;20451;-78
2023/06/01 16:12:39;;;;;;;6.37;3.60;;;;;;;;;;6252886;28;20439;-78
2023/06/01 16:15:41;;;;;;;5.00;3.33;;;;;;;;;;6247637;28;20048;-77
2023/06/01 16:18:42;;;;;;;6.97;3.83;;;;;;;;;;6251688;28;20056;-78
2023/06/01 16:21:44;;;;;;;6.77;3.73;;;;;;;;;;6257231;28;20045;-77
2023/06/01 16:24:46;;;;;;;4.90;3.60;;;;;;;;;;6254999;28;20098;-77
2023/06/01 16:27:50;;;;;;;5.20;3.63;;;;;;;;;;6252552;28;20037;-78
2023/06/01 16:30:52;;;;;;;4.88;3.45;;;;;;;;;;6250758;28;20545;-78
2023/06/01 16:33:53;;;;;;;6.80;3.67;;;;;;;;;;6245355;28;20060;-77
2023/06/01 16:36:55;;;;;;;6.87;3.77;;;;;;;;;;6248445;28;20454;-76
2023/06/01 16:39:57;;;;;;;4.93;4.07;;;;;;;;;;6257593;28;20451;-76
2023/06/01 16:42:59;;;;;;;5.00;3.67;;;;;;;;;;6254928;28;20045;-79
2023/06/01 16:46:00;;;;;;;6.83;4.20;;;;;;;;;;6251912;28;20419;-79
2023/06/01 16:49:04;;;;;;;5.30;3.70;;;;;;;;;;6256626;28;20041;-80
2023/06/01 16:52:06;;;;;;;13.38;9.07;;;;;;;;;;6252180;28;20048;-79
2023/06/01 16:55:08;;;;;;;6.43;4.78;;;;;;;;;;6249643;28;20118;-79
2023/06/01 16:58:10;;;;;;;5.43;3.42;;;;;;;;;;6258913;28;20060;-80
2023/06/01 17:01:12;;;;;;;6.70;3.60;;;;;;;;;;6252837;28;20153;-77
2023/06/01 17:04:15;;;;;;;5.57;3.37;;;;;;;;;;6249030;28;20045;-76
2023/06/01 17:07:16;;;;;;;5.70;3.25;;;;;;;;;;6254242;28;20064;-75
2023/06/01 17:10:18;;;;;;;30.63;6.93;;;;;;;;;;6249640;28;20049;-76
2023/06/01 17:13:20;;;;;;;4.47;3.20;;;;;;;;;;6249781;28;20054;-80
2023/06/01 17:16:22;;;;;;;5.25;3.50;;;;;;;;;;6250732;28;20041;-80
2023/06/01 17:19:24;;;;;;;3.97;3.35;;;;;;;;;;6257653;28;20048;-79
2023/06/01 17:22:26;;;;;;;5.25;3.20;;;;;;;;;;6255853;28;20055;-80
2023/06/01 17:25:28;;;;;;;6.53;3.38;;;;;;;;;;6253139;28;20503;-79
2023/06/01 17:28:31;;;;;;;4.53;2.70;;;;;;;;;;6251680;28;20045;-80
2023/06/01 17:31:32;;;;;;;;;;;;;;;;;;6250215;28;20056;-80
2023/06/01 17:34:34;;;;;;;4.80;3.22;;;;;;;;;;6259975;28;20417;-80
2023/06/01 17:37:36;;;;;;;5.27;2.93;;;;;;;;;;6254778;28;20159;-79
2023/06/01 17:40:38;;;;;;;5.22;3.22;;;;;;;;;;6257541;28;20042;-80
2023/06/01 17:43:40;;;;;;;4.17;2.90;;;;;;;;;;6251788;28;20049;-80
2023/06/01 17:46:42;;;;;;;4.82;2.90;;;;;;;;;;6260626;28;20793;-79
2023/06/01 17:49:44;;;;;;;3.53;2.80;;;;;;;;;;6257618;28;20053;-80
2023/06/01 17:52:46;;;;;;;4.05;3.20;;;;;;;;;;6254525;28;20209;-79
2023/06/01 17:55:47;;;;;;;4.80;3.08;;;;;;;;;;6272903;28;20048;-79
2023/06/01 17:58:49;;;;;;;7.50;3.38;;;;;;;;;;6254759;28;20056;-79
2023/06/01 18:01:51;;;;;;;5.53;2.83;;;;;;;;;;6257314;28;20048;-80
2023/06/01 18:04:52;;;;;;;5.40;3.13;;;;;;;;;;6264690;28;20069;-79
2023/06/01 18:07:55;;;;;;;4.38;3.15;;;;;;;;;;6256567;28;20065;-79
2023/06/01 18:11:01;;;;;;;;;;;;;;;;;;6246107;28;20369;-81
2023/06/01 18:14:02;;;;;;;5.88;3.22;;;;;;;;;;6263172;28;19921;-79
2023/06/01 18:17:05;;;;;;;5.85;3.55;;;;;;;;;;6260679;28;20068;-80
2023/06/01 18:20:06;;;;;;;5.93;3.33;;;;;;;;;;6256143;28;20413;-79